Time;durP1;ratioP1;P1;durP2;ratioP2;P2;SDS_P1;SDS_P2;PMS_P1;PMS_P2;Temp;Humidity;BMP_temperature;BMP_pressure;BME280_temperature;BME280_humidity;BME280_pressure;Samples;Min_cycle;Max_cycle;Signal;HPM_P1;HPM_P2
2022/04/01 00:02:21;;;;;;;32.35;23.15;;;;;;;4.10;92.77;98705.78;5011260;28;20203;-72
2022/04/01 00:04:46;;;;;;;31.73;22.38;;;;;;;4.10;92.80;98703.16;5013366;28;20131;-73
2022/04/01 00:07:12;;;;;;;30.27;21.65;;;;;;;4.10;92.82;98703.16;5012930;28;20029;-72
2022/04/01 00:09:38;;;;;;;34.58;24.40;;;;;;;4.08;93.06;98699.06;5013023;28;20437;-72
2022/04/01 00:12:08;;;;;;;32.55;23.08;;;;;;;4.09;92.57;98701.50;5012734;28;20045;-72
2022/04/01 00:14:34;;;;;;;32.75;23.63;;;;;;;4.06;92.60;98703.63;5012885;28;20045;-72
2022/04/01 00:17:00;;;;;;;32.67;23.95;;;;;;;4.05;92.67;98700.16;5012559;28;20034;-72
2022/04/01 00:19:26;;;;;;;33.75;23.92;;;;;;;4.05;92.37;98705.38;5012784;28;20398;-73
2022/04/01 00:21:52;;;;;;;34.40;24.95;;;;;;;3.99;92.13;98709.44;5015479;28;20196;-72
2022/04/01 00:24:17;;;;;;;38.72;25.48;;;;;;;3.98;92.16;98705.22;5052073;28;20639;-72
2022/04/01 00:26:45;;;;;;;34.75;25.15;;;;;;;3.95;92.39;98697.66;5052107;28;20502;-72
2022/04/01 00:29:17;;;;;;;31.40;22.85;;;;;;;3.96;92.28;98701.09;5037059;28;20037;-72
2022/04/01 00:31:48;;;;;;;32.42;22.98;;;;;;;4.00;92.35;98695.41;5032065;28;20494;-72
2022/04/01 00:34:17;;;;;;;35.08;24.75;;;;;;;3.96;92.40;98698.50;5031812;28;20033;-72
2022/04/01 00:36:47;;;;;;;35.47;25.52;;;;;;;3.99;92.30;98699.00;5032394;28;20414;-72
2022/04/01 00:39:14;;;;;;;32.85;23.58;;;;;;;4.01;92.36;98694.44;5032353;28;20034;-72
2022/04/01 00:41:40;;;;;;;31.52;22.88;;;;;;;4.04;92.05;98688.06;5032521;28;20040;-72
2022/04/01 00:44:14;;;;;;;35.15;24.17;;;;;;;4.07;92.12;98685.13;5030990;28;20025;-72
2022/04/01 00:46:42;;;;;;;31.55;23.40;;;;;;;4.03;91.98;98689.06;5032514;28;20029;-72
2022/04/01 00:49:07;;;;;;;33.67;23.33;;;;;;;4.03;91.84;98689.88;5047580;28;20028;-72
2022/04/01 00:51:33;;;;;;;28.95;21.88;;;;;;;4.04;92.14;98683.66;5052109;28;20052;-72
2022/04/01 00:53:58;;;;;;;32.38;23.48;;;;;;;4.10;91.94;98695.31;5052584;28;20060;-72
2022/04/01 00:56:30;;;;;;;32.15;22.58;;;;;;;4.12;91.91;98688.09;5050942;28;20041;-72
2022/04/01 00:58:57;;;;;;;32.42;23.35;;;;;;;4.12;92.07;98688.09;5050289;28;20538;-72
2022/04/01 01:01:22;;;;;;;33.00;23.63;;;;;;;4.07;92.04;98695.59;5039238;28;20371;-72
2022/04/01 01:03:47;;;;;;;31.63;22.38;;;;;;;4.11;92.20;98689.09;5031914;28;20028;-72
2022/04/01 01:06:14;;;;;;;32.55;23.27;;;;;;;4.08;92.15;98684.19;5029790;28;20034;-72
2022/04/01 01:08:40;;;;;;;32.05;23.38;;;;;;;4.09;92.10;98690.22;5031664;28;20033;-72
2022/04/01 01:11:06;;;;;;;33.17;23.50;;;;;;;4.07;92.02;98694.78;5031502;28;20510;-72
2022/04/01 01:13:32;;;;;;;31.42;23.13;;;;;;;4.08;92.12;98691.22;5031323;28;20033;-72
2022/04/01 01:15:57;;;;;;;31.40;23.48;;;;;;;4.07;92.24;98692.97;5031685;28;20494;-72
2022/04/01 01:18:22;;;;;;;30.45;22.63;;;;;;;4.07;92.17;98692.16;5029135;28;20037;-72
2022/04/01 01:20:48;;;;;;;30.60;22.67;;;;;;;4.08;91.84;98691.22;5031337;28;20061;-72
2022/04/01 01:23:13;;;;;;;31.52;22.38;;;;;;;4.06;91.63;98687.91;5030149;28;20052;-72
2022/04/01 01:25:39;;;;;;;32.15;23.83;;;;;;;4.00;91.66;98684.97;5031354;28;20033;-72
2022/04/01 01:28:07;;;;;;;30.55;22.98;;;;;;;3.99;91.17;98685.91;5035265;28;20783;-72
2022/04/01 01:30:33;;;;;;;29.60;22.73;;;;;;;3.98;91.97;98680.81;5051513;28;20461;-72
2022/04/01 01:32:58;;;;;;;30.15;22.90;;;;;;;3.92;91.64;98692.75;5051227;28;20108;-73
2022/04/01 01:35:23;;;;;;;34.28;24.10;;;;;;;3.91;92.00;98685.88;5050767;28;20128;-72
2022/04/01 01:37:49;;;;;;;29.85;22.70;;;;;;;3.97;91.80;98680.00;5050854;28;20533;-72
2022/04/01 01:40:15;;;;;;;31.83;23.10;;;;;;;3.98;91.56;98686.91;5050420;28;20041;-72
2022/04/01 01:42:40;;;;;;;33.20;23.05;;;;;;;3.97;91.50;98680.00;5050807;28;20037;-74
2022/04/01 01:45:07;;;;;;;31.30;23.48;;;;;;;3.97;91.59;98680.00;5050135;28;20079;-72
2022/04/01 01:47:32;;;;;;;31.60;23.08;;;;;;;3.96;91.58;98678.38;5048518;28;20037;-72
2022/04/01 01:55:27;;;;;;;30.10;22.33;;;;;;;3.94;91.69;98682.94;5031962;28;20291;-72
2022/04/01 01:57:53;;;;;;;32.53;24.15;;;;;;;3.92;91.79;98678.84;5030932;28;20284;-74
2022/04/01 02:00:22;;;;;;;32.75;24.70;;;;;;;3.93;91.67;98686.56;5026240;28;20176;-72
2022/04/01 02:02:50;;;;;;;34.45;24.70;;;;;;;3.97;91.46;98681.81;5010584;28;20038;-74
2022/04/01 02:05:16;;;;;;;32.90;23.92;;;;;;;3.93;91.50;98680.47;5009021;28;20112;-74
2022/04/01 02:07:48;;;;;;;31.20;23.27;;;;;;;3.94;91.56;98677.72;5008324;28;20558;-74
2022/04/01 02:10:16;;;;;;;30.25;22.08;;;;;;;3.93;91.15;98677.88;5009711;28;20037;-74
2022/04/01 02:12:43;;;;;;;31.23;23.40;;;;;;;3.91;91.42;98675.41;5010634;28;20079;-74
2022/04/01 02:15:12;;;;;;;30.13;23.25;;;;;;;3.91;91.29;98678.03;5010642;28;20042;-72
2022/04/01 02:17:39;;;;;;;29.65;22.23;;;;;;;3.90;91.23;98673.75;5010628;28;20501;-72
2022/04/01 02:20:05;;;;;;;35.00;23.77;;;;;;;3.86;91.03;98677.66;5010070;28;20045;-74
2022/04/01 02:22:31;;;;;;;28.85;21.77;;;;;;;3.88;91.31;98674.91;5024166;28;20029;-74
2022/04/01 02:24:57;;;;;;;28.98;21.92;;;;;;;3.88;90.93;98672.28;5050313;28;20047;-72
2022/04/01 02:27:24;;;;;;;30.75;23.35;;;;;;;3.78;91.17;98675.81;5049946;28;20037;-72
2022/04/01 02:29:50;;;;;;;32.20;23.67;;;;;;;3.83;90.95;98670.13;5028974;28;20041;-73
2022/04/01 02:32:16;;;;;;;31.55;22.95;;;;;;;3.82;90.87;98671.13;5029644;28;20674;-74
2022/04/01 02:34:42;;;;;;;28.88;21.23;;;;;;;3.86;90.74;98680.28;5029886;28;20052;-74
2022/04/01 02:37:07;;;;;;;32.30;23.60;;;;;;;3.82;90.85;98678.97;5030171;28;20501;-74
2022/04/01 02:39:33;;;;;;;29.27;21.60;;;;;;;3.85;90.64;98685.66;5029958;28;20036;-72
2022/04/01 02:41:58;;;;;;;25.75;19.20;;;;;;;3.91;90.70;98691.13;5029887;28;20636;-74
2022/04/01 02:44:23;;;;;;;25.35;19.17;;;;;;;3.94;90.80;98688.19;5029664;28;20053;-74
2022/04/01 02:46:49;;;;;;;27.70;20.48;;;;;;;3.95;90.59;98684.56;5029821;28;20126;-74
2022/04/01 02:49:17;;;;;;;26.08;20.10;;;;;;;4.00;90.50;98686.72;5045587;28;20051;-74
2022/04/01 02:51:45;;;;;;;29.15;21.15;;;;;;;3.97;90.06;98687.84;5049679;28;20428;-74
2022/04/01 02:54:11;;;;;;;29.80;20.67;;;;;;;3.95;90.23;98687.19;5049107;28;20029;-74
2022/04/01 02:56:38;;;;;;;30.10;21.73;;;;;;;3.97;90.15;98687.84;5049809;28;20300;-74
2022/04/01 02:59:08;;;;;;;28.73;21.88;;;;;;;3.92;89.88;98690.13;5049647;28;20064;-74
2022/04/01 03:01:38;;;;;;;29.30;21.45;;;;;;;3.93;90.09;98685.72;5049167;28;20029;-74
2022/04/01 03:04:09;;;;;;;27.73;21.53;;;;;;;3.88;89.96;98691.41;5047483;28;20033;-74
2022/04/01 03:06:34;;;;;;;27.52;21.50;;;;;;;3.88;90.08;98691.41;5027277;28;20264;-74
2022/04/01 03:09:00;;;;;;;30.45;22.48;;;;;;;3.93;89.82;98690.94;5027833;28;20040;-74
2022/04/01 03:11:25;;;;;;;28.83;22.20;;;;;;;3.86;89.68;98685.50;5029714;28;20116;-74
2022/04/01 03:13:50;;;;;;;28.55;20.58;;;;;;;3.85;89.90;98693.50;5029853;28;20045;-74
2022/04/01 03:16:16;;;;;;;27.67;21.88;;;;;;;3.83;89.72;98698.88;5028886;28;20053;-72
2022/04/01 03:18:42;;;;;;;27.48;21.08;;;;;;;3.85;89.75;98691.72;5029353;28;20138;-74
2022/04/01 03:21:12;;;;;;;26.60;20.20;;;;;;;3.90;89.67;98696.47;5028147;28;20153;-74
2022/04/01 03:23:43;;;;;;;21.42;17.27;;;;;;;3.90;89.54;98697.28;5029304;28;20411;-74
2022/04/01 03:26:09;;;;;;;;;;;;;;;3.88;89.66;98694.00;5029285;28;20038;-72
2022/04/01 03:28:35;;;;;;;29.02;21.48;;;;;;;3.85;89.64;98704.78;5036499;28;19913;-72
2022/04/01 03:31:06;;;;;;;29.00;22.33;;;;;;;3.81;89.66;98698.22;5048961;28;20032;-74
2022/04/01 03:33:32;;;;;;;26.00;19.85;;;;;;;3.83;89.42;98699.69;5049291;28;20025;-74
2022/04/01 03:35:58;;;;;;;28.58;21.80;;;;;;;3.72;89.60;98699.13;5047784;28;20568;-74
2022/04/01 03:38:25;;;;;;;26.90;20.40;;;;;;;3.74;89.30;98703.25;5048672;28;20041;-74
2022/04/01 03:40:51;;;;;;;27.17;21.42;;;;;;;3.70;89.52;98701.09;5049240;28;20547;-72
2022/04/01 03:43:21;;;;;;;27.85;21.77;;;;;;;3.68;89.50;98695.19;5047637;28;20033;-74
2022/04/01 03:45:48;;;;;;;29.77;22.45;;;;;;;3.67;89.80;98702.22;5049358;28;20033;-74
2022/04/01 03:48:31;;;;;;;26.10;20.02;;;;;;;3.68;89.36;98703.03;5038734;28;20509;-74
2022/04/01 03:50:57;;;;;;;28.25;21.55;;;;;;;3.68;89.19;98695.19;5029060;28;20033;-74
2022/04/01 03:53:31;;;;;;;27.73;21.13;;;;;;;3.65;89.24;98698.94;5028014;28;20048;-74
2022/04/01 03:55:58;;;;;;;27.08;20.92;;;;;;;3.64;89.21;98693.84;5027634;28;20037;-74
2022/04/01 03:58:29;;;;;;;29.42;22.52;;;;;;;3.59;89.09;98697.75;5028294;28;20080;-74
2022/04/01 04:00:58;;;;;;;28.88;21.55;;;;;;;3.59;89.09;98689.91;5044589;28;20501;-74
2022/04/01 04:03:24;;;;;;;28.33;21.83;;;;;;;3.50;89.29;98705.66;5029414;28;20061;-74
2022/04/01 04:05:51;;;;;;;29.10;22.27;;;;;;;3.50;89.20;98703.88;5013787;28;20041;-74
2022/04/01 04:08:18;;;;;;;26.38;19.75;;;;;;;3.54;89.10;98697.38;5008772;28;20121;-74
2022/04/01 04:10:46;;;;;;;25.45;19.63;;;;;;;3.54;89.17;98702.59;5008251;28;20030;-74
2022/04/01 04:13:13;;;;;;;26.63;20.33;;;;;;;3.53;89.46;98700.16;5009638;28;20037;-74
2022/04/01 04:16:04;;;;;;;23.98;18.10;;;;;;;3.61;88.73;98700.22;5009315;28;20049;-74
2022/04/01 04:18:34;;;;;;;25.27;18.52;;;;;;;3.63;89.00;98706.13;5009035;28;20038;-74
2022/04/01 04:21:10;;;;;;;21.85;16.48;;;;;;;3.68;88.74;98710.88;5009104;28;20533;-74
2022/04/01 04:23:46;;;;;;;24.27;18.13;;;;;;;3.69;88.68;98709.91;5039837;28;20044;-74
2022/04/01 04:26:15;;;;;;;22.45;16.83;;;;;;;3.69;88.62;98712.50;5048482;28;20433;-74
2022/04/01 04:28:49;;;;;;;24.50;18.35;;;;;;;3.68;88.46;98724.78;5037771;28;20060;-74
2022/04/01 04:31:23;;;;;;;23.55;17.60;;;;;;;3.66;88.43;98720.66;5028449;28;20548;-73
2022/04/01 04:33:51;;;;;;;24.77;18.48;;;;;;;3.61;88.41;98723.75;5030873;28;20069;-74
2022/04/01 04:36:20;;;;;;;22.95;17.40;;;;;;;3.66;88.42;98726.72;5031642;28;20112;-74
2022/04/01 04:38:49;;;;;;;24.98;19.08;;;;;;;3.63;88.30;98726.22;5028445;28;20521;-74
2022/04/01 04:41:14;;;;;;;23.10;18.20;;;;;;;3.61;88.31;98728.97;5037340;28;20059;-74
2022/04/01 04:43:46;;;;;;;23.02;17.88;;;;;;;3.63;88.27;98739.28;5032259;28;20128;-74
2022/04/01 04:46:14;;;;;;;23.90;18.65;;;;;;;3.61;88.48;98737.63;5031178;28;20034;-73
2022/04/01 04:48:41;;;;;;;23.48;18.05;;;;;;;3.64;88.23;98744.34;5037756;28;20082;-74
2022/04/01 04:51:08;;;;;;;24.20;18.17;;;;;;;3.61;88.26;98744.66;5044144;28;20029;-74
2022/04/01 04:53:35;;;;;;;25.63;19.15;;;;;;;3.59;88.41;98743.97;5050994;28;20029;-73
2022/04/01 04:56:04;;;;;;;24.98;18.60;;;;;;;3.63;88.12;98747.94;5041692;28;20038;-74
2022/04/01 04:58:39;;;;;;;23.23;17.17;;;;;;;3.63;88.10;98749.72;5036481;28;20394;-74
2022/04/01 05:01:24;;;;;;;24.65;17.98;;;;;;;3.64;88.26;98753.97;5031561;28;20037;-74
2022/04/01 05:04:10;;;;;;;29.20;21.48;;;;;;;3.60;88.23;98758.69;5031870;28;20576;-74
2022/04/01 05:06:48;;;;;;;28.30;20.92;;;;;;;3.55;88.05;98758.31;5031794;28;20041;-74
2022/04/01 05:09:17;;;;;;;23.63;18.63;;;;;;;3.55;88.14;98769.59;5031466;28;20111;-74
2022/04/01 05:12:02;;;;;;;27.02;20.05;;;;;;;3.53;88.48;98771.53;5030767;28;20040;-74
2022/04/01 05:14:46;;;;;;;28.77;19.30;;;;;;;3.54;88.06;98781.00;5032765;28;20044;-74
2022/04/01 05:17:17;;;;;;;22.88;17.13;;;;;;;3.56;87.98;98779.06;5034765;28;20036;-73
2022/04/01 05:19:54;;;;;;;21.75;16.92;;;;;;;3.58;87.95;98777.13;5034164;28;20406;-74
2022/04/01 05:22:24;;;;;;;22.42;17.67;;;;;;;3.57;88.10;98780.69;5031398;28;20029;-73
2022/04/01 05:24:52;;;;;;;25.17;18.70;;;;;;;3.57;87.98;98787.72;5030253;28;20029;-74
2022/04/01 05:27:31;;;;;;;26.65;19.55;;;;;;;3.55;87.88;98794.88;5030869;28;20033;-74
2022/04/01 05:30:13;;;;;;;23.58;18.40;;;;;;;3.53;87.72;98791.63;5010076;28;20085;-74
2022/04/01 05:32:40;;;;;;;23.85;18.05;;;;;;;3.50;87.94;98795.34;5010946;28;20038;-74
2022/04/01 05:35:06;;;;;;;25.17;18.40;;;;;;;3.53;87.79;98795.06;5011434;28;20490;-74
2022/04/01 05:37:34;;;;;;;22.95;17.58;;;;;;;3.59;87.70;98804.88;5012093;28;20041;-74
2022/04/01 05:40:05;;;;;;;23.75;17.60;;;;;;;3.59;87.85;98799.66;5030558;28;20322;-74
2022/04/01 05:42:32;;;;;;;;;;;;;;;3.57;87.78;98798.19;5029280;28;20036;-74
2022/04/01 05:44:59;;;;;;;23.50;17.55;;;;;;;3.56;87.68;98804.38;5030686;28;19939;-74
2022/04/01 05:47:26;;;;;;;23.50;18.42;;;;;;;3.55;87.75;98808.81;5032080;28;20042;-74
2022/04/01 05:49:56;;;;;;;25.92;19.10;;;;;;;3.53;87.36;98802.09;5050719;28;20029;-73
2022/04/01 05:52:24;;;;;;;21.85;17.20;;;;;;;3.54;87.26;98807.13;5050421;28;20040;-74
2022/04/01 05:54:50;;;;;;;23.30;17.30;;;;;;;3.50;87.19;98804.97;5049368;28;20033;-74
2022/04/01 05:57:18;;;;;;;22.08;16.65;;;;;;;3.49;87.03;98814.59;5034160;28;20037;-74
2022/04/01 05:59:44;;;;;;;21.98;17.10;;;;;;;3.45;87.25;98813.25;5029036;28;20115;-74
2022/04/01 06:02:33;;;;;;;22.33;17.08;;;;;;;3.49;87.36;98811.19;5030453;28;20038;-74
2022/04/01 06:05:15;;;;;;;21.63;16.85;;;;;;;3.49;87.33;98825.06;5030906;28;20042;-74
2022/04/01 06:07:57;;;;;;;22.25;17.35;;;;;;;3.48;86.94;98818.19;5030353;28;20455;-74
2022/04/01 06:10:53;;;;;;;22.67;17.10;;;;;;;3.51;87.17;98822.31;5028538;28;20041;-74
2022/04/01 06:13:34;;;;;;;24.30;18.50;;;;;;;3.47;86.89;98828.78;5029018;28;20033;-73
2022/04/01 06:16:20;;;;;;;21.73;15.90;;;;;;;3.47;86.85;98824.38;5030411;28;20041;-73
2022/04/01 06:19:18;;;;;;;23.85;16.95;;;;;;;3.46;86.83;98825.38;5029931;28;20474;-73
2022/04/01 06:21:53;;;;;;;23.27;16.67;;;;;;;3.50;86.82;98836.31;5029390;28;20422;-74
2022/04/01 06:24:52;;;;;;;22.52;16.77;;;;;;;3.53;86.72;98836.06;5050435;28;20025;-74
2022/04/01 06:27:38;;;;;;;24.20;17.30;;;;;;;3.47;86.43;98836.63;5039421;28;20045;-74
2022/04/01 06:30:09;;;;;;;22.73;17.02;;;;;;;3.51;86.49;98841.41;5010461;28;20049;-73
2022/04/01 06:32:50;;;;;;;23.05;17.38;;;;;;;3.49;86.46;98851.19;5008645;28;20041;-73
2022/04/01 06:35:30;;;;;;;22.88;16.98;;;;;;;3.54;86.17;98853.38;5010853;28;20120;-74
2022/04/01 06:37:57;;;;;;;19.63;14.75;;;;;;;3.58;86.32;98858.16;5009901;28;20108;-74
2022/04/01 06:40:27;;;;;;;24.95;17.40;;;;;;;3.54;86.12;98853.38;5029884;28;20367;-74
2022/04/01 06:42:53;;;;;;;21.80;16.42;;;;;;;3.54;86.23;98856.78;5034489;28;20040;-73
2022/04/01 06:45:19;;;;;;;21.08;16.10;;;;;;;3.54;85.86;98859.41;5044007;28;20029;-74
2022/04/01 06:47:45;;;;;;;22.67;16.80;;;;;;;3.54;85.83;98864.63;5049611;28;20120;-74
2022/04/01 06:50:12;;;;;;;20.15;15.35;;;;;;;3.60;85.65;98864.06;5049407;28;20052;-74
2022/04/01 06:52:38;;;;;;;21.13;17.08;;;;;;;3.60;85.68;98866.66;5049595;28;20033;-73
2022/04/01 06:55:10;;;;;;;22.27;16.10;;;;;;;3.59;85.55;98858.97;5049131;28;20047;-74
2022/04/01 06:57:36;;;;;;;20.80;15.77;;;;;;;3.61;85.62;98867.47;5049256;28;20029;-73
2022/04/01 07:00:05;;;;;;;22.67;16.92;;;;;;;3.55;85.50;98862.84;5049930;28;20387;-74
2022/04/01 07:02:31;;;;;;;22.35;16.73;;;;;;;3.53;85.20;98864.78;5049954;28;20033;-74
2022/04/01 07:04:56;;;;;;;21.45;16.67;;;;;;;3.49;85.23;98873.91;5049957;28;20561;-74
2022/04/01 07:07:21;;;;;;;21.85;16.42;;;;;;;3.52;85.14;98873.59;5049824;28;20029;-74
2022/04/01 07:09:47;;;;;;;19.92;15.20;;;;;;;3.53;85.31;98864.78;5049233;28;20128;-74
2022/04/01 07:12:12;;;;;;;20.00;15.35;;;;;;;3.60;85.07;98871.06;5047347;28;21389;-74
2022/04/01 07:14:38;;;;;;;21.08;15.27;;;;;;;3.62;85.08;98871.72;5049659;28;20072;-74
2022/04/01 07:17:03;;;;;;;23.17;16.83;;;;;;;3.54;84.86;98882.91;5049525;28;20043;-74
2022/04/01 07:19:29;;;;;;;21.33;16.42;;;;;;;3.50;84.67;98878.94;5049164;28;20063;-74
2022/04/01 07:21:54;;;;;;;20.13;16.33;;;;;;;3.48;84.69;98880.06;5047452;28;20036;-73
2022/04/01 07:24:20;;;;;;;20.35;15.48;;;;;;;3.41;84.83;98879.84;5029080;28;20120;-74
2022/04/01 07:26:46;;;;;;;18.85;15.27;;;;;;;3.37;84.92;98879.31;5029227;28;20026;-74
2022/04/01 07:29:13;;;;;;;18.55;14.43;;;;;;;3.43;84.79;98885.72;5041444;28;20128;-74
2022/04/01 07:34:35;;;;;;;15.68;12.82;;;;;;;3.40;84.89;98886.03;5028903;28;20485;-73
2022/04/01 07:37:00;;;;;;;17.00;13.70;;;;;;;3.46;85.02;98888.06;5029121;28;20494;-74
2022/04/01 07:39:26;;;;;;;16.30;13.65;;;;;;;3.41;85.12;98890.31;5027544;28;20091;-73
2022/04/01 07:41:52;;;;;;;14.85;12.35;;;;;;;3.40;85.33;98897.31;5028722;28;20033;-74
2022/04/01 07:44:17;;;;;;;14.90;12.32;;;;;;;3.34;85.84;98907.53;5028651;28;20026;-74
2022/04/01 07:46:43;;;;;;;13.63;11.73;;;;;;;3.19;86.49;98905.41;5027572;28;20116;-74
2022/04/01 07:49:08;;;;;;;16.73;13.73;;;;;;;3.19;86.66;98909.78;5028931;28;20025;-73
2022/04/01 07:51:33;;;;;;;;;;;;;;;3.18;86.80;98906.34;5029540;28;20512;-74
2022/04/01 07:53:59;;;;;;;16.90;12.83;;;;;;;3.14;86.87;98899.78;5029580;28;19924;-74
2022/04/01 07:56:30;;;;;;;17.88;13.25;;;;;;;3.03;87.67;98910.41;5029012;28;20037;-74
2022/04/01 07:58:59;;;;;;;16.38;13.23;;;;;;;3.02;87.79;98900.91;5029628;28;20057;-74
2022/04/01 08:01:25;;;;;;;16.85;12.93;;;;;;;2.95;87.65;98910.28;5030127;28;20040;-74
2022/04/01 08:03:50;;;;;;;16.65;13.23;;;;;;;2.93;88.25;98907.00;5030226;28;20034;-74
2022/04/01 08:06:16;;;;;;;17.48;14.30;;;;;;;2.83;88.49;98911.44;5030405;28;20041;-74
2022/04/01 08:08:41;;;;;;;18.50;14.25;;;;;;;2.82;88.71;98917.63;5034356;28;20037;-74
2022/04/01 08:11:06;;;;;;;19.25;14.70;;;;;;;2.79;89.24;98923.13;5035078;28;20284;-74
2022/04/01 08:13:33;;;;;;;18.83;14.55;;;;;;;2.86;89.03;98929.41;5032917;28;20038;-74
2022/04/01 08:15:58;;;;;;;18.00;15.15;;;;;;;2.88;89.32;98922.28;5048177;28;20498;-74
2022/04/01 08:18:24;;;;;;;21.02;16.15;;;;;;;2.89;89.21;98934.38;5031857;28;20075;-74
2022/04/01 08:20:49;;;;;;;21.13;16.85;;;;;;;2.85;88.84;98930.41;5032551;28;20029;-74
2022/04/01 08:23:14;;;;;;;20.60;15.80;;;;;;;2.92;89.11;98923.66;5031200;28;20042;-74
2022/04/01 08:25:40;;;;;;;19.10;14.75;;;;;;;3.00;88.52;98931.56;5032681;28;20038;-74
2022/04/01 08:28:05;;;;;;;18.27;14.68;;;;;;;3.09;87.97;98935.94;5035030;28;20044;-74
2022/04/01 08:30:32;;;;;;;17.05;13.32;;;;;;;3.13;87.62;98939.09;5050990;28;20029;-74
2022/04/01 08:32:57;;;;;;;19.27;15.15;;;;;;;3.11;86.86;98947.06;5052398;28;20029;-74
2022/04/01 08:35:23;;;;;;;20.58;16.15;;;;;;;3.08;86.65;98949.16;5050657;28;20051;-74
2022/04/01 08:37:49;;;;;;;20.63;15.20;;;;;;;3.05;86.08;98952.88;5052041;28;20114;-74
2022/04/01 08:40:15;;;;;;;21.08;15.82;;;;;;;3.11;85.88;98952.28;5051988;28;20513;-74
2022/04/01 08:42:47;;;;;;;21.73;16.33;;;;;;;3.08;85.61;98957.00;5043256;28;20061;-74
2022/04/01 08:45:16;;;;;;;23.20;16.95;;;;;;;3.03;85.46;98954.81;5032240;28;20037;-74
2022/04/01 08:47:41;;;;;;;22.48;17.15;;;;;;;3.14;85.37;98961.63;5034502;28;20029;-74
2022/04/01 08:50:08;;;;;;;23.83;17.13;;;;;;;3.15;84.98;98963.28;5051557;28;20048;-74
2022/04/01 08:52:33;;;;;;;25.08;17.08;;;;;;;3.13;84.82;98971.25;5041150;28;20061;-74
2022/04/01 08:55:09;;;;;;;23.88;16.85;;;;;;;3.03;84.40;98973.09;5051428;28;20061;-73
2022/04/01 08:57:39;;;;;;;25.60;18.42;;;;;;;3.07;84.68;98979.66;5051885;28;20095;-73
2022/04/01 09:00:13;;;;;;;23.52;16.92;;;;;;;3.09;84.78;98982.94;5051214;28;20039;-74
2022/04/01 09:02:38;;;;;;;22.17;17.15;;;;;;;3.09;84.69;98985.56;5050087;28;20099;-74
2022/04/01 09:05:06;;;;;;;22.30;16.50;;;;;;;3.05;84.49;98983.38;5052141;28;20075;-73
2022/04/01 09:07:31;;;;;;;22.52;16.10;;;;;;;3.02;84.74;98989.69;5050501;28;20067;-74
2022/04/01 09:10:05;;;;;;;26.67;18.58;;;;;;;2.98;84.60;98993.59;5051463;28;20033;-74
2022/04/01 09:12:30;;;;;;;23.67;16.38;;;;;;;2.87;85.02;98991.13;5051078;28;20394;-74
2022/04/01 09:14:57;;;;;;;22.33;16.80;;;;;;;2.86;84.83;98999.91;5051246;28;20041;-73
2022/04/01 09:17:41;;;;;;;21.27;16.48;;;;;;;2.76;85.63;99002.53;5050023;28;20037;-73
2022/04/01 09:20:07;;;;;;;19.30;15.68;;;;;;;2.73;85.69;99003.63;5050879;28;20052;-74
2022/04/01 09:22:34;;;;;;;20.88;15.30;;;;;;;2.76;85.79;99000.75;5050089;28;20041;-75
2022/04/01 09:25:13;;;;;;;21.60;16.13;;;;;;;2.82;86.18;99003.78;5050177;28;20413;-74
2022/04/01 09:27:41;;;;;;;17.90;13.88;;;;;;;2.84;86.25;99005.28;5050429;28;20037;-74
2022/04/01 09:30:13;;;;;;;18.77;14.82;;;;;;;2.80;86.61;99003.09;5031019;28;20064;-74
2022/04/01 09:32:45;;;;;;;19.67;15.30;;;;;;;2.73;86.96;99006.25;5030976;28;20572;-74
2022/04/01 09:35:11;;;;;;;18.55;14.05;;;;;;;2.66;87.25;99006.94;5031300;28;20467;-74
2022/04/01 09:37:41;;;;;;;20.23;15.18;;;;;;;2.70;87.43;99010.94;5031301;28;20026;-74
2022/04/01 09:40:08;;;;;;;20.85;15.73;;;;;;;2.63;87.87;99012.44;5029134;28;20057;-74
2022/04/01 09:42:34;;;;;;;18.00;14.73;;;;;;;2.62;87.98;99010.78;5031578;28;20030;-76
2022/04/01 09:45:00;;;;;;;20.05;14.25;;;;;;;2.70;88.08;99016.97;5031271;28;20037;-75
2022/04/01 09:47:26;;;;;;;19.75;15.20;;;;;;;2.66;87.58;99012.16;5031222;28;20520;-73
2022/04/01 09:49:52;;;;;;;17.90;14.18;;;;;;;2.71;87.27;99017.78;5051347;28;20071;-75
2022/04/01 09:52:20;;;;;;;19.58;13.80;;;;;;;2.85;86.35;99024.38;5042944;28;20030;-76
2022/04/01 09:54:47;;;;;;;17.27;13.18;;;;;;;2.91;86.06;99023.81;5030043;28;20041;-75
2022/04/01 09:57:18;;;;;;;15.88;13.00;;;;;;;3.00;85.52;99022.16;5031329;28;20275;-75
2022/04/01 09:59:45;;;;;;;16.73;12.32;;;;;;;2.96;85.08;99019.81;5029344;28;20041;-75
2022/04/01 10:02:11;;;;;;;18.05;12.93;;;;;;;2.87;84.82;99031.09;5030035;28;20053;-75
2022/04/01 10:04:36;;;;;;;15.75;11.85;;;;;;;2.84;84.04;99028.78;5030885;28;20120;-74
2022/04/01 10:07:03;;;;;;;15.93;12.15;;;;;;;2.81;84.11;99038.66;5030735;28;20029;-75
2022/04/01 10:09:33;;;;;;;13.93;11.38;;;;;;;2.80;84.08;99030.00;5030171;28;20068;-75
2022/04/01 10:12:06;;;;;;;17.23;11.30;;;;;;;2.83;84.16;99034.94;5029585;28;20035;-75
2022/04/01 10:14:31;;;;;;;12.73;9.82;;;;;;;3.00;84.03;99033.41;5028792;28;20033;-75
2022/04/01 10:17:01;;;;;;;14.50;10.80;;;;;;;3.05;83.27;99033.84;5030576;28;20044;-75
2022/04/01 10:19:37;;;;;;;12.23;9.82;;;;;;;2.95;82.90;99031.22;5030368;28;20044;-74
2022/04/01 10:22:03;;;;;;;11.95;9.35;;;;;;;3.04;82.87;99034.78;5030434;28;20044;-75
2022/04/01 10:24:52;;;;;;;10.82;9.02;;;;;;;3.05;82.40;99039.06;5030141;28;20280;-75
2022/04/01 10:27:40;;;;;;;11.27;8.80;;;;;;;3.08;82.34;99038.78;5045408;28;20044;-75
2022/04/01 10:30:08;;;;;;;9.98;7.75;;;;;;;2.95;81.52;99043.44;5009032;28;20034;-75
2022/04/01 10:32:41;;;;;;;10.90;7.70;;;;;;;3.00;82.19;99038.63;5009129;28;20037;-74
2022/04/01 10:35:19;;;;;;;10.30;8.25;;;;;;;3.00;82.33;99041.25;5009088;28;20053;-75
2022/04/01 10:37:45;;;;;;;11.77;8.30;;;;;;;3.04;82.51;99049.63;5010215;28;20034;-75
2022/04/01 10:40:17;;;;;;;10.23;7.47;;;;;;;2.91;82.45;99049.94;5009993;28;20430;-74
2022/04/01 10:42:45;;;;;;;10.88;7.78;;;;;;;2.81;83.14;99049.91;5010133;28;20072;-74
2022/04/01 10:45:16;;;;;;;11.25;8.38;;;;;;;2.78;83.48;99055.41;5010380;28;20425;-74
2022/04/01 10:53:35;;;;;;;9.43;7.20;;;;;;;2.57;83.86;99063.38;5048663;28;20074;-74
2022/04/01 10:56:43;;;;;;;9.85;8.00;;;;;;;2.52;84.99;99068.19;5033665;28;20037;-74
2022/04/01 10:59:16;;;;;;;10.18;8.10;;;;;;;2.52;85.19;99078.63;4987062;28;20035;-74
2022/04/01 11:01:46;;;;;;;9.48;8.07;;;;;;;2.42;85.41;99067.38;4987121;28;20543;-74
2022/04/01 11:04:11;;;;;;;10.27;8.00;;;;;;;2.34;86.15;99079.31;5015550;28;20060;-74
2022/04/01 11:07:00;;;;;;;10.43;7.97;;;;;;;2.48;86.78;99083.31;5033714;28;20299;-74
2022/04/01 11:09:42;;;;;;;11.85;8.43;;;;;;;2.47;86.68;99083.44;5037535;28;20268;-74
2022/04/01 11:12:21;;;;;;;8.80;7.28;;;;;;;2.36;86.72;99087.00;5044783;28;20063;-73
2022/04/01 11:17:49;;;;;;;9.02;7.53;;;;;;;2.27;88.26;99093.84;5037571;28;20137;-74
2022/04/01 11:20:21;;;;;;;9.63;7.60;;;;;;;2.27;87.78;99099.06;5026591;28;20091;-74
2022/04/01 11:22:52;;;;;;;9.40;7.85;;;;;;;2.16;87.88;99100.94;5043720;28;20036;-73
2022/04/01 11:25:33;;;;;;;10.23;7.85;;;;;;;2.06;88.23;99103.53;5040739;28;20039;-73
2022/04/01 11:27:58;;;;;;;9.20;7.53;;;;;;;1.99;89.47;99102.41;5064734;28;20528;-74
2022/04/01 11:30:26;;;;;;;11.07;8.73;;;;;;;1.90;89.40;99102.22;5051678;28;20033;-74
2022/04/01 11:32:59;;;;;;;11.90;8.10;;;;;;;1.99;90.31;99107.63;5062015;28;20354;-74
2022/04/01 11:35:29;;;;;;;11.15;8.75;;;;;;;2.18;90.11;99106.84;5060251;28;20429;-74
2022/04/01 11:37:55;;;;;;;12.63;9.52;;;;;;;2.22;89.81;99108.25;5036111;28;20089;-74
2022/04/01 11:40:29;;;;;;;11.82;9.18;;;;;;;2.08;90.29;99115.47;5065300;28;20040;-74
2022/04/01 11:43:03;;;;;;;11.18;8.93;;;;;;;2.00;90.28;99115.31;5060096;28;20037;-74
2022/04/01 11:45:42;;;;;;;10.80;8.85;;;;;;;2.02;90.36;99110.78;5062580;28;20164;-74
2022/04/01 11:48:32;;;;;;;13.23;9.13;;;;;;;2.15;90.36;99120.16;5068707;28;20513;-74
2022/04/01 11:51:19;;;;;;;9.77;7.47;;;;;;;2.20;90.12;99123.19;5060237;28;20548;-74
2022/04/01 11:53:52;;;;;;;12.15;8.80;;;;;;;2.26;90.40;99120.03;5058968;28;20087;-75
2022/04/01 11:56:19;;;;;;;11.85;9.27;;;;;;;2.24;91.31;99119.34;5068371;28;20083;-75